TVF58MV LFRS-GMMN
Flight info
| Callsign | TVF58MV |
|---|---|
| Flight time | 2h 19m |
| Altitude | 33000 |
| Route | ERIGA DCT FUJTI DCT BAKUP/N0462F350 DCT BATAX DCT ALAGU DCT AMSEL UR722 LAKAM |
| Aircraft | B738/M-SDE2E3FGHIRWXY/LB1 |
Departure
| Time | 2026-05-01 09:12 |
|---|---|
| Airport | Nantes Atlantique Airport (LFRS) |
Arrival
| Time | 2026-05-01 11:31 |
|---|---|
| Airport | Mohammed V International Airport (GMMN) |
| Time | Latitude | Longitude | Altitude | Speed | Heading |
|---|---|---|---|---|---|
| 2026-05-01 08:58 | 47.15398 | -1.60327 | 82 ft | 0 kts | 207° |
| 2026-05-01 09:02 | 47.15410 | -1.60315 | 82 ft | 2 kts | 230° |
| 2026-05-01 09:02 | 47.15418 | -1.60297 | 82 ft | 2 kts | 247° |
| 2026-05-01 09:02 | 47.15422 | -1.60276 | 82 ft | 2 kts | 266° |
| 2026-05-01 09:03 | 47.15420 | -1.60254 | 82 ft | 2 kts | 285° |
| 2026-05-01 09:03 | 47.15414 | -1.60234 | 83 ft | 2 kts | 302° |
| 2026-05-01 09:03 | 47.15410 | -1.60224 | 83 ft | 0 kts | 298° |
| 2026-05-01 09:03 | 47.15410 | -1.60223 | 83 ft | 0 kts | 298° |
| 2026-05-01 09:05 | 47.15411 | -1.60227 | 83 ft | 2 kts | 298° |
| 2026-05-01 09:05 | 47.15435 | -1.60291 | 82 ft | 11 kts | 298° |
| 2026-05-01 09:06 | 47.15508 | -1.60400 | 82 ft | 17 kts | 324° |
| 2026-05-01 09:06 | 47.15579 | -1.60527 | 84 ft | 15 kts | 305° |
| 2026-05-01 09:06 | 47.15546 | -1.60632 | 84 ft | 13 kts | 206° |
| 2026-05-01 09:06 | 47.15454 | -1.60701 | 84 ft | 16 kts | 207° |
| 2026-05-01 09:07 | 47.15334 | -1.60793 | 87 ft | 22 kts | 207° |
| 2026-05-01 09:07 | 47.15177 | -1.60914 | 87 ft | 28 kts | 207° |
| 2026-05-01 09:07 | 47.14979 | -1.61065 | 87 ft | 33 kts | 207° |
| 2026-05-01 09:07 | 47.14777 | -1.61215 | 86 ft | 32 kts | 206° |
| 2026-05-01 09:08 | 47.14579 | -1.61368 | 81 ft | 32 kts | 207° |
| 2026-05-01 09:08 | 47.14383 | -1.61518 | 78 ft | 31 kts | 207° |
| 2026-05-01 09:08 | 47.14199 | -1.61657 | 77 ft | 20 kts | 209° |
| 2026-05-01 09:08 | 47.14148 | -1.61769 | 77 ft | 12 kts | 259° |
| 2026-05-01 09:09 | 47.14148 | -1.61886 | 77 ft | 10 kts | 290° |
| 2026-05-01 09:09 | 47.14182 | -1.61940 | 77 ft | 5 kts | 7° |
| 2026-05-01 09:09 | 47.14212 | -1.61920 | 77 ft | 0 kts | 28° |
| 2026-05-01 09:11 | 47.14213 | -1.61919 | 77 ft | 1 kts | 28° |
| 2026-05-01 09:11 | 47.14303 | -1.61850 | 77 ft | 44 kts | 27° |
| 2026-05-01 09:12 | 47.14804 | -1.61468 | 84 ft | 114 kts | 26° |
| 2026-05-01 09:12 | 47.15694 | -1.60791 | 85 ft | 173 kts | 27° |
| 2026-05-01 09:12 | 47.16845 | -1.59929 | 595 ft | 185 kts | 26° |
| 2026-05-01 09:12 | 47.17973 | -1.59279 | 1524 ft | 182 kts | 7° |
| 2026-05-01 09:13 | 47.19232 | -1.59509 | 2047 ft | 188 kts | 336° |
| 2026-05-01 09:13 | 47.20350 | -1.60635 | 2284 ft | 203 kts | 312° |
| 2026-05-01 09:13 | 47.21132 | -1.62412 | 2578 ft | 215 kts | 288° |
| 2026-05-01 09:13 | 47.21482 | -1.64644 | 2852 ft | 230 kts | 278° |
| 2026-05-01 09:14 | 47.21734 | -1.67014 | 3186 ft | 243 kts | 278° |
| 2026-05-01 09:14 | 47.22035 | -1.69544 | 3535 ft | 256 kts | 279° |
| 2026-05-01 09:14 | 47.22372 | -1.72117 | 3997 ft | 263 kts | 280° |
| 2026-05-01 09:14 | 47.22626 | -1.74791 | 4540 ft | 266 kts | 270° |
| 2026-05-01 09:15 | 47.22304 | -1.77438 | 5090 ft | 267 kts | 246° |
| 2026-05-01 09:15 | 47.21457 | -1.79830 | 5679 ft | 267 kts | 239° |
| 2026-05-01 09:15 | 47.20506 | -1.82194 | 6261 ft | 270 kts | 239° |
| 2026-05-01 09:15 | 47.19587 | -1.84571 | 6840 ft | 273 kts | 240° |
| 2026-05-01 09:16 | 47.18684 | -1.87045 | 7446 ft | 275 kts | 241° |
| 2026-05-01 09:16 | 47.17814 | -1.89517 | 8018 ft | 278 kts | 242° |
| 2026-05-01 09:16 | 47.16940 | -1.92032 | 8628 ft | 279 kts | 242° |
| 2026-05-01 09:17 | 47.15156 | -1.97148 | 9831 ft | 284 kts | 242° |
| 2026-05-01 09:17 | 47.14166 | -1.99640 | 10374 ft | 287 kts | 232° |
| 2026-05-01 09:17 | 47.11275 | -2.04055 | 10973 ft | 314 kts | 223° |
| 2026-05-01 09:18 | 47.09689 | -2.06384 | 11239 ft | 329 kts | 225° |
| 2026-05-01 09:18 | 47.06465 | -2.11499 | 11693 ft | 360 kts | 227° |
| 2026-05-01 09:19 | 47.03053 | -2.17124 | 12547 ft | 377 kts | 227° |
| 2026-05-01 09:19 | 47.01286 | -2.20041 | 13128 ft | 381 kts | 227° |
| 2026-05-01 09:19 | 46.99527 | -2.22936 | 13626 ft | 388 kts | 227° |
| 2026-05-01 09:20 | 46.95804 | -2.28686 | 14921 ft | 391 kts | 219° |
| 2026-05-01 09:20 | 46.91118 | -2.32955 | 16101 ft | 398 kts | 206° |
| 2026-05-01 09:21 | 46.86115 | -2.36481 | 17283 ft | 404 kts | 205° |
| 2026-05-01 09:21 | 46.83602 | -2.38356 | 17849 ft | 408 kts | 207° |
| 2026-05-01 09:21 | 46.78684 | -2.42530 | 19034 ft | 413 kts | 211° |
| 2026-05-01 09:22 | 46.73749 | -2.46929 | 20114 ft | 419 kts | 211° |
| 2026-05-01 09:22 | 46.68758 | -2.51349 | 21216 ft | 424 kts | 210° |
| 2026-05-01 09:23 | 46.66242 | -2.53561 | 21672 ft | 427 kts | 210° |
| 2026-05-01 09:23 | 46.61114 | -2.58045 | 22738 ft | 431 kts | 210° |
| 2026-05-01 09:24 | 46.55965 | -2.62524 | 23690 ft | 435 kts | 210° |
| 2026-05-01 09:24 | 46.53330 | -2.64811 | 24101 ft | 439 kts | 210° |
| 2026-05-01 09:24 | 46.48087 | -2.69353 | 25090 ft | 441 kts | 210° |
| 2026-05-01 09:25 | 46.42788 | -2.73932 | 25872 ft | 448 kts | 210° |
| 2026-05-01 09:25 | 46.37433 | -2.78550 | 26699 ft | 452 kts | 210° |
| 2026-05-01 09:26 | 46.34740 | -2.80868 | 27118 ft | 453 kts | 210° |
| 2026-05-01 09:26 | 46.29284 | -2.85556 | 27855 ft | 458 kts | 210° |
| 2026-05-01 09:26 | 46.26571 | -2.87884 | 28535 ft | 452 kts | 210° |
| 2026-05-01 09:27 | 46.21239 | -2.92496 | 29509 ft | 449 kts | 211° |
| 2026-05-01 09:27 | 46.18579 | -2.94815 | 30026 ft | 447 kts | 211° |
| 2026-05-01 09:27 | 46.15921 | -2.97133 | 30476 ft | 445 kts | 211° |
| 2026-05-01 09:28 | 46.13293 | -2.99425 | 30888 ft | 444 kts | 211° |
| 2026-05-01 09:28 | 46.10648 | -3.01728 | 31290 ft | 442 kts | 211° |
| 2026-05-01 09:28 | 46.08011 | -3.04019 | 31660 ft | 441 kts | 211° |
| 2026-05-01 09:28 | 46.05373 | -3.06307 | 32005 ft | 441 kts | 211° |
| 2026-05-01 09:29 | 46.00180 | -3.10802 | 32762 ft | 437 kts | 211° |
| 2026-05-01 09:29 | 45.97590 | -3.13039 | 33101 ft | 436 kts | 211° |
| 2026-05-01 09:30 | 45.92379 | -3.17530 | 33195 ft | 439 kts | 211° |
| 2026-05-01 09:30 | 45.84565 | -3.24245 | 33192 ft | 437 kts | 211° |
| 2026-05-01 09:31 | 45.79357 | -3.28706 | 33193 ft | 436 kts | 211° |
| 2026-05-01 09:32 | 45.71532 | -3.35392 | 33196 ft | 437 kts | 211° |
| 2026-05-01 09:32 | 45.63725 | -3.42042 | 33193 ft | 437 kts | 211° |
| 2026-05-01 09:33 | 45.58517 | -3.46464 | 33197 ft | 437 kts | 211° |
| 2026-05-01 09:34 | 45.50674 | -3.53108 | 33201 ft | 437 kts | 211° |
| 2026-05-01 09:34 | 45.42887 | -3.59683 | 33195 ft | 437 kts | 211° |
| 2026-05-01 09:35 | 45.35039 | -3.66292 | 33198 ft | 438 kts | 211° |
| 2026-05-01 09:36 | 45.29806 | -3.70686 | 33193 ft | 438 kts | 211° |
| 2026-05-01 09:36 | 45.24580 | -3.75064 | 33192 ft | 437 kts | 211° |
| 2026-05-01 09:37 | 45.19331 | -3.79451 | 33187 ft | 438 kts | 211° |
| 2026-05-01 09:37 | 45.14061 | -3.83854 | 33441 ft | 442 kts | 211° |
| 2026-05-01 09:37 | 45.11456 | -3.86025 | 33875 ft | 438 kts | 211° |
| 2026-05-01 09:38 | 45.06218 | -3.90381 | 34487 ft | 436 kts | 212° |
| 2026-05-01 09:38 | 45.03625 | -3.92531 | 34773 ft | 435 kts | 211° |
| 2026-05-01 09:38 | 45.01001 | -3.94706 | 35016 ft | 434 kts | 212° |
| 2026-05-01 09:39 | 44.95773 | -3.99035 | 35192 ft | 439 kts | 212° |
| 2026-05-01 09:39 | 44.90528 | -4.03368 | 35190 ft | 433 kts | 212° |
| 2026-05-01 09:40 | 44.82675 | -4.09836 | 35181 ft | 441 kts | 212° |
| 2026-05-01 09:41 | 44.77398 | -4.14172 | 35182 ft | 439 kts | 212° |
| 2026-05-01 09:41 | 44.69525 | -4.20617 | 35173 ft | 440 kts | 212° |
| 2026-05-01 09:42 | 44.64270 | -4.24908 | 35165 ft | 436 kts | 212° |
| 2026-05-01 09:43 | 44.53811 | -4.33424 | 35166 ft | 436 kts | 212° |
| 2026-05-01 09:43 | 44.48575 | -4.37674 | 35164 ft | 436 kts | 212° |
| 2026-05-01 09:44 | 44.40689 | -4.44060 | 35169 ft | 439 kts | 212° |
| 2026-05-01 09:45 | 44.35468 | -4.48415 | 35158 ft | 437 kts | 213° |
| 2026-05-01 09:45 | 44.27723 | -4.55004 | 35161 ft | 436 kts | 213° |
| 2026-05-01 09:46 | 44.22572 | -4.59373 | 35149 ft | 434 kts | 213° |
| 2026-05-01 09:46 | 44.17408 | -4.63732 | 35160 ft | 437 kts | 213° |
| 2026-05-01 09:47 | 44.12210 | -4.68104 | 35159 ft | 434 kts | 212° |
| 2026-05-01 09:47 | 44.07068 | -4.72418 | 35160 ft | 433 kts | 212° |
| 2026-05-01 09:48 | 44.01906 | -4.76740 | 35158 ft | 434 kts | 212° |
| 2026-05-01 09:48 | 43.96738 | -4.81057 | 35152 ft | 437 kts | 212° |
| 2026-05-01 09:49 | 43.91556 | -4.85377 | 35146 ft | 436 kts | 212° |
| 2026-05-01 09:49 | 43.86361 | -4.89698 | 35151 ft | 436 kts | 212° |
| 2026-05-01 09:50 | 43.81180 | -4.93999 | 35144 ft | 435 kts | 212° |
| 2026-05-01 09:50 | 43.75992 | -4.98297 | 35145 ft | 436 kts | 212° |
| 2026-05-01 09:51 | 43.70837 | -5.02559 | 35143 ft | 433 kts | 212° |
| 2026-05-01 09:51 | 43.65671 | -5.06821 | 35137 ft | 434 kts | 212° |
| 2026-05-01 09:52 | 43.60509 | -5.11073 | 35132 ft | 434 kts | 212° |
| 2026-05-01 09:52 | 43.55345 | -5.15315 | 35134 ft | 431 kts | 212° |
| 2026-05-01 09:53 | 43.50196 | -5.19539 | 35130 ft | 435 kts | 212° |
| 2026-05-01 09:53 | 43.45014 | -5.23781 | 35134 ft | 433 kts | 212° |
| 2026-05-01 09:54 | 43.39853 | -5.27995 | 35146 ft | 434 kts | 212° |
| 2026-05-01 09:54 | 43.34689 | -5.32204 | 35158 ft | 433 kts | 212° |
| 2026-05-01 09:55 | 43.29517 | -5.36411 | 35162 ft | 430 kts | 212° |
| 2026-05-01 09:55 | 43.24370 | -5.40590 | 35169 ft | 433 kts | 212° |
| 2026-05-01 09:56 | 43.19210 | -5.44770 | 35181 ft | 431 kts | 212° |
| 2026-05-01 09:56 | 43.14063 | -5.48931 | 35184 ft | 430 kts | 212° |
| 2026-05-01 09:57 | 43.08911 | -5.53089 | 35192 ft | 433 kts | 212° |
| 2026-05-01 09:57 | 43.03760 | -5.57241 | 35190 ft | 429 kts | 212° |
| 2026-05-01 09:58 | 42.98614 | -5.61379 | 35189 ft | 431 kts | 212° |
| 2026-05-01 09:58 | 42.93459 | -5.65516 | 35191 ft | 428 kts | 211° |
| 2026-05-01 09:59 | 42.88326 | -5.69628 | 35193 ft | 432 kts | 211° |
| 2026-05-01 09:59 | 42.83172 | -5.73748 | 35190 ft | 431 kts | 211° |
| 2026-05-01 10:00 | 42.77975 | -5.77895 | 35187 ft | 430 kts | 211° |
| 2026-05-01 10:00 | 42.72850 | -5.81975 | 35185 ft | 430 kts | 211° |
| 2026-05-01 10:01 | 42.67679 | -5.86086 | 35186 ft | 431 kts | 211° |
| 2026-05-01 10:01 | 42.62509 | -5.90186 | 35185 ft | 429 kts | 211° |
| 2026-05-01 10:02 | 42.57375 | -5.94251 | 35181 ft | 429 kts | 211° |
| 2026-05-01 10:02 | 42.52240 | -5.98308 | 35182 ft | 429 kts | 211° |
| 2026-05-01 10:03 | 42.47093 | -6.02368 | 35180 ft | 429 kts | 211° |
| 2026-05-01 10:03 | 42.41935 | -6.06425 | 35176 ft | 429 kts | 211° |
| 2026-05-01 10:04 | 42.36802 | -6.10455 | 35166 ft | 428 kts | 211° |
| 2026-05-01 10:04 | 42.31651 | -6.14494 | 35163 ft | 427 kts | 211° |
| 2026-05-01 10:05 | 42.26518 | -6.18509 | 35161 ft | 430 kts | 211° |
| 2026-05-01 10:05 | 42.21330 | -6.22556 | 35161 ft | 430 kts | 211° |
| 2026-05-01 10:06 | 42.16205 | -6.26548 | 35160 ft | 427 kts | 211° |
| 2026-05-01 10:06 | 42.11060 | -6.30552 | 35157 ft | 429 kts | 211° |
| 2026-05-01 10:07 | 42.05873 | -6.34579 | 35155 ft | 428 kts | 211° |
| 2026-05-01 10:07 | 42.00764 | -6.38540 | 35158 ft | 428 kts | 211° |
| 2026-05-01 10:08 | 41.93007 | -6.44532 | 35156 ft | 428 kts | 211° |
| 2026-05-01 10:09 | 41.87886 | -6.48483 | 35156 ft | 427 kts | 211° |
| 2026-05-01 10:09 | 41.82714 | -6.52467 | 35155 ft | 428 kts | 211° |
| 2026-05-01 10:10 | 41.77569 | -6.56422 | 35154 ft | 426 kts | 211° |
| 2026-05-01 10:10 | 41.69693 | -6.61937 | 35151 ft | 430 kts | 202° |
| 2026-05-01 10:11 | 41.63935 | -6.64182 | 35150 ft | 430 kts | 195° |
| 2026-05-01 10:11 | 41.58084 | -6.65841 | 35148 ft | 432 kts | 193° |
| 2026-05-01 10:12 | 41.53185 | -6.67176 | 35147 ft | 432 kts | 193° |
| 2026-05-01 10:13 | 41.43369 | -6.69921 | 35145 ft | 432 kts | 194° |
| 2026-05-01 10:13 | 41.37501 | -6.71594 | 35144 ft | 432 kts | 194° |
| 2026-05-01 10:14 | 41.28727 | -6.74103 | 35147 ft | 432 kts | 194° |
| 2026-05-01 10:14 | 41.22831 | -6.75789 | 35138 ft | 433 kts | 194° |
| 2026-05-01 10:15 | 41.16975 | -6.77461 | 35135 ft | 432 kts | 194° |
| 2026-05-01 10:15 | 41.11083 | -6.79140 | 35131 ft | 434 kts | 194° |
| 2026-05-01 10:16 | 41.05196 | -6.80816 | 35133 ft | 433 kts | 194° |
| 2026-05-01 10:17 | 40.96359 | -6.83325 | 35136 ft | 434 kts | 194° |
| 2026-05-01 10:17 | 40.87520 | -6.85827 | 35135 ft | 435 kts | 194° |
| 2026-05-01 10:18 | 40.78651 | -6.88332 | 35133 ft | 436 kts | 194° |
| 2026-05-01 10:19 | 40.72708 | -6.90007 | 35113 ft | 433 kts | 194° |
| 2026-05-01 10:19 | 40.66792 | -6.91672 | 35136 ft | 435 kts | 194° |
| 2026-05-01 10:20 | 40.57932 | -6.94158 | 35137 ft | 438 kts | 194° |
| 2026-05-01 10:20 | 40.51970 | -6.95827 | 35135 ft | 435 kts | 194° |
| 2026-05-01 10:21 | 40.43116 | -6.98300 | 35136 ft | 434 kts | 195° |
| 2026-05-01 10:22 | 40.34271 | -7.00765 | 35132 ft | 438 kts | 195° |
| 2026-05-01 10:23 | 40.25363 | -7.03239 | 35134 ft | 436 kts | 195° |
| 2026-05-01 10:23 | 40.16428 | -7.05715 | 35132 ft | 435 kts | 195° |
| 2026-05-01 10:24 | 40.04615 | -7.08977 | 35126 ft | 436 kts | 195° |
| 2026-05-01 10:25 | 39.92717 | -7.12250 | 35123 ft | 436 kts | 196° |
| 2026-05-01 10:26 | 39.86789 | -7.13876 | 35122 ft | 436 kts | 196° |
| 2026-05-01 10:27 | 39.74980 | -7.17111 | 35133 ft | 436 kts | 196° |
| 2026-05-01 10:28 | 39.66086 | -7.19539 | 35127 ft | 435 kts | 197° |
| 2026-05-01 10:28 | 39.57219 | -7.21954 | 35132 ft | 437 kts | 197° |
| 2026-05-01 10:29 | 39.48324 | -7.24369 | 35119 ft | 436 kts | 197° |
| 2026-05-01 10:30 | 39.36485 | -7.27572 | 35132 ft | 435 kts | 197° |
| 2026-05-01 10:31 | 39.24629 | -7.30772 | 35127 ft | 435 kts | 198° |
| 2026-05-01 10:32 | 39.15769 | -7.33153 | 35136 ft | 436 kts | 198° |
| 2026-05-01 10:33 | 39.03903 | -7.36333 | 35135 ft | 436 kts | 198° |
| 2026-05-01 10:34 | 38.94978 | -7.38722 | 35135 ft | 436 kts | 198° |
| 2026-05-01 10:34 | 38.89047 | -7.40303 | 35131 ft | 436 kts | 199° |
| 2026-05-01 10:35 | 38.80156 | -7.42671 | 35134 ft | 435 kts | 199° |
| 2026-05-01 10:35 | 38.74240 | -7.44242 | 35134 ft | 435 kts | 199° |
| 2026-05-01 10:36 | 38.65357 | -7.46595 | 35135 ft | 434 kts | 199° |
| 2026-05-01 10:37 | 38.59466 | -7.48155 | 35140 ft | 436 kts | 199° |
| 2026-05-01 10:37 | 38.50570 | -7.50500 | 35140 ft | 434 kts | 200° |
| 2026-05-01 10:38 | 38.44675 | -7.52055 | 35136 ft | 435 kts | 199° |
| 2026-05-01 10:38 | 38.38737 | -7.53617 | 35137 ft | 435 kts | 200° |
| 2026-05-01 10:39 | 38.32849 | -7.55160 | 35138 ft | 434 kts | 200° |
| 2026-05-01 10:39 | 38.26933 | -7.56711 | 35267 ft | 436 kts | 200° |
| 2026-05-01 10:40 | 38.23973 | -7.57486 | 35074 ft | 430 kts | 200° |
| 2026-05-01 10:40 | 38.21023 | -7.58256 | 35133 ft | 433 kts | 200° |
| 2026-05-01 10:40 | 38.15094 | -7.59807 | 35137 ft | 431 kts | 200° |
| 2026-05-01 10:41 | 38.12147 | -7.60574 | 35257 ft | 437 kts | 200° |
| 2026-05-01 10:41 | 38.09180 | -7.61347 | 35168 ft | 434 kts | 199° |
| 2026-05-01 10:42 | 38.00122 | -7.62815 | 35185 ft | 445 kts | 194° |
| 2026-05-01 10:42 | 37.93977 | -7.63507 | 35162 ft | 438 kts | 194° |
| 2026-05-01 10:43 | 37.87927 | -7.64216 | 35140 ft | 442 kts | 194° |
| 2026-05-01 10:43 | 37.81812 | -7.64973 | 35140 ft | 441 kts | 195° |
| 2026-05-01 10:44 | 37.75661 | -7.65755 | 35138 ft | 442 kts | 194° |
| 2026-05-01 10:44 | 37.69583 | -7.66529 | 35137 ft | 441 kts | 194° |
| 2026-05-01 10:45 | 37.63495 | -7.67313 | 35143 ft | 443 kts | 194° |
| 2026-05-01 10:45 | 37.57373 | -7.68100 | 35138 ft | 441 kts | 194° |
| 2026-05-01 10:46 | 37.51260 | -7.68889 | 35139 ft | 444 kts | 194° |
| 2026-05-01 10:46 | 37.45136 | -7.69675 | 35134 ft | 442 kts | 194° |
| 2026-05-01 10:47 | 37.39020 | -7.70454 | 35138 ft | 440 kts | 194° |
| 2026-05-01 10:47 | 37.32939 | -7.71234 | 35136 ft | 442 kts | 194° |
| 2026-05-01 10:48 | 37.26811 | -7.72018 | 35152 ft | 440 kts | 194° |
| 2026-05-01 10:48 | 37.20737 | -7.72790 | 35158 ft | 442 kts | 194° |
| 2026-05-01 10:49 | 37.14630 | -7.73566 | 35140 ft | 439 kts | 194° |
| 2026-05-01 10:49 | 37.08533 | -7.74339 | 35158 ft | 442 kts | 194° |
| 2026-05-01 10:50 | 37.02433 | -7.75111 | 35152 ft | 439 kts | 195° |
| 2026-05-01 10:50 | 36.96345 | -7.75885 | 35159 ft | 444 kts | 195° |
| 2026-05-01 10:51 | 36.90202 | -7.76661 | 35153 ft | 440 kts | 194° |
| 2026-05-01 10:51 | 36.84125 | -7.77426 | 35139 ft | 441 kts | 194° |
| 2026-05-01 10:52 | 36.78007 | -7.78199 | 35138 ft | 440 kts | 194° |
| 2026-05-01 10:52 | 36.71972 | -7.78956 | 35150 ft | 439 kts | 194° |
| 2026-05-01 10:53 | 36.65856 | -7.79728 | 35143 ft | 443 kts | 194° |
| 2026-05-01 10:53 | 36.59746 | -7.80494 | 35124 ft | 440 kts | 194° |
| 2026-05-01 10:54 | 36.53634 | -7.81254 | 35139 ft | 442 kts | 194° |
| 2026-05-01 10:54 | 36.47513 | -7.82022 | 35142 ft | 441 kts | 194° |
| 2026-05-01 10:55 | 36.41436 | -7.82776 | 35137 ft | 442 kts | 194° |
| 2026-05-01 10:55 | 36.35332 | -7.83539 | 35143 ft | 441 kts | 194° |
| 2026-05-01 10:56 | 36.29220 | -7.84297 | 35160 ft | 441 kts | 194° |
| 2026-05-01 10:56 | 36.23103 | -7.85056 | 35148 ft | 439 kts | 194° |
| 2026-05-01 10:57 | 36.17029 | -7.85808 | 35150 ft | 440 kts | 194° |
| 2026-05-01 10:57 | 36.10944 | -7.86564 | 35156 ft | 441 kts | 194° |
| 2026-05-01 10:58 | 36.04845 | -7.87317 | 35152 ft | 442 kts | 194° |
| 2026-05-01 10:58 | 35.98725 | -7.88046 | 35156 ft | 442 kts | 192° |
| 2026-05-01 10:59 | 35.92503 | -7.88088 | 35152 ft | 453 kts | 186° |
| 2026-05-01 10:59 | 35.86194 | -7.87561 | 35157 ft | 451 kts | 184° |
| 2026-05-01 11:00 | 35.79927 | -7.86921 | 35155 ft | 453 kts | 184° |
| 2026-05-01 11:00 | 35.73642 | -7.86297 | 35151 ft | 453 kts | 184° |
| 2026-05-01 11:01 | 35.67377 | -7.85698 | 35158 ft | 453 kts | 184° |
| 2026-05-01 11:01 | 35.61120 | -7.85119 | 35152 ft | 451 kts | 184° |
| 2026-05-01 11:02 | 35.54814 | -7.84551 | 35153 ft | 453 kts | 184° |
| 2026-05-01 11:02 | 35.48541 | -7.83982 | 35147 ft | 453 kts | 184° |
| 2026-05-01 11:03 | 35.42274 | -7.83416 | 35156 ft | 451 kts | 184° |
| 2026-05-01 11:03 | 35.36052 | -7.82870 | 35152 ft | 450 kts | 184° |
| 2026-05-01 11:04 | 35.29805 | -7.82346 | 35154 ft | 450 kts | 184° |
| 2026-05-01 11:04 | 35.23542 | -7.81824 | 35154 ft | 452 kts | 184° |
| 2026-05-01 11:05 | 35.17283 | -7.81301 | 35154 ft | 450 kts | 184° |
| 2026-05-01 11:05 | 35.11068 | -7.80779 | 35154 ft | 450 kts | 184° |
| 2026-05-01 11:06 | 35.04812 | -7.80257 | 35154 ft | 452 kts | 184° |
| 2026-05-01 11:06 | 34.98547 | -7.79732 | 35157 ft | 452 kts | 184° |
| 2026-05-01 11:07 | 34.89176 | -7.78947 | 35152 ft | 450 kts | 184° |
| 2026-05-01 11:07 | 34.82949 | -7.78426 | 35148 ft | 450 kts | 184° |
| 2026-05-01 11:08 | 34.76677 | -7.77909 | 35153 ft | 453 kts | 184° |
| 2026-05-01 11:09 | 34.67325 | -7.77176 | 35136 ft | 448 kts | 184° |
| 2026-05-01 11:09 | 34.61097 | -7.76754 | 35147 ft | 452 kts | 184° |
| 2026-05-01 11:10 | 34.51693 | -7.76117 | 35138 ft | 450 kts | 184° |
| 2026-05-01 11:10 | 34.45437 | -7.75690 | 35140 ft | 450 kts | 184° |
| 2026-05-01 11:11 | 34.39158 | -7.75253 | 35141 ft | 451 kts | 184° |
| 2026-05-01 11:11 | 34.32909 | -7.74820 | 35091 ft | 451 kts | 184° |
| 2026-05-01 11:12 | 34.29788 | -7.74605 | 34650 ft | 449 kts | 184° |
| 2026-05-01 11:12 | 34.26668 | -7.74385 | 34086 ft | 445 kts | 184° |
| 2026-05-01 11:12 | 34.23576 | -7.74167 | 33415 ft | 445 kts | 184° |
| 2026-05-01 11:12 | 34.20511 | -7.73954 | 32673 ft | 447 kts | 184° |
| 2026-05-01 11:13 | 34.17402 | -7.73738 | 31874 ft | 449 kts | 183° |
| 2026-05-01 11:13 | 34.14278 | -7.73487 | 31028 ft | 453 kts | 182° |
| 2026-05-01 11:13 | 34.11145 | -7.73206 | 30141 ft | 456 kts | 182° |
| 2026-05-01 11:13 | 34.07943 | -7.72906 | 29232 ft | 460 kts | 182° |
| 2026-05-01 11:14 | 34.04761 | -7.72603 | 28311 ft | 465 kts | 181° |
| 2026-05-01 11:14 | 34.01534 | -7.72296 | 27494 ft | 465 kts | 181° |
| 2026-05-01 11:14 | 33.98309 | -7.71987 | 26817 ft | 463 kts | 181° |
| 2026-05-01 11:14 | 33.95141 | -7.71683 | 26113 ft | 462 kts | 181° |
| 2026-05-01 11:15 | 33.91955 | -7.71381 | 25386 ft | 460 kts | 181° |
| 2026-05-01 11:15 | 33.88742 | -7.71079 | 24654 ft | 458 kts | 181° |
| 2026-05-01 11:15 | 33.85575 | -7.70783 | 23924 ft | 456 kts | 180° |
| 2026-05-01 11:15 | 33.82426 | -7.70491 | 23205 ft | 454 kts | 180° |
| 2026-05-01 11:16 | 33.79310 | -7.70202 | 22497 ft | 452 kts | 180° |
| 2026-05-01 11:16 | 33.76155 | -7.69911 | 21773 ft | 451 kts | 180° |
| 2026-05-01 11:16 | 33.73049 | -7.69626 | 21043 ft | 448 kts | 180° |
| 2026-05-01 11:16 | 33.69976 | -7.69344 | 20287 ft | 446 kts | 180° |
| 2026-05-01 11:17 | 33.66872 | -7.69061 | 19568 ft | 443 kts | 179° |
| 2026-05-01 11:17 | 33.63805 | -7.68780 | 18860 ft | 440 kts | 179° |
| 2026-05-01 11:17 | 33.60799 | -7.68505 | 18127 ft | 436 kts | 179° |
| 2026-05-01 11:17 | 33.57833 | -7.68229 | 17431 ft | 419 kts | 179° |
| 2026-05-01 11:18 | 33.54958 | -7.67960 | 16748 ft | 404 kts | 179° |
| 2026-05-01 11:18 | 33.52217 | -7.67793 | 16103 ft | 390 kts | 182° |
| 2026-05-01 11:18 | 33.49555 | -7.67857 | 15472 ft | 383 kts | 186° |
| 2026-05-01 11:18 | 33.46885 | -7.68091 | 14866 ft | 385 kts | 187° |
| 2026-05-01 11:19 | 33.44205 | -7.68401 | 14154 ft | 386 kts | 188° |
| 2026-05-01 11:19 | 33.41579 | -7.68721 | 13451 ft | 381 kts | 187° |
| 2026-05-01 11:19 | 33.38985 | -7.69028 | 12835 ft | 368 kts | 187° |
| 2026-05-01 11:19 | 33.36450 | -7.69317 | 12255 ft | 366 kts | 187° |
| 2026-05-01 11:20 | 33.33913 | -7.69597 | 11560 ft | 368 kts | 186° |
| 2026-05-01 11:20 | 33.31399 | -7.69866 | 11097 ft | 352 kts | 186° |
| 2026-05-01 11:20 | 33.29005 | -7.70114 | 10905 ft | 338 kts | 186° |
| 2026-05-01 11:20 | 33.26717 | -7.70350 | 10768 ft | 324 kts | 186° |
| 2026-05-01 11:21 | 33.24538 | -7.70575 | 10621 ft | 310 kts | 186° |
| 2026-05-01 11:21 | 33.22405 | -7.70928 | 10454 ft | 303 kts | 194° |
| 2026-05-01 11:21 | 33.20502 | -7.71742 | 10269 ft | 285 kts | 206° |
| 2026-05-01 11:21 | 33.18747 | -7.72768 | 9948 ft | 279 kts | 205° |
| 2026-05-01 11:22 | 33.16935 | -7.73669 | 9526 ft | 279 kts | 198° |
| 2026-05-01 11:22 | 33.15080 | -7.74218 | 9160 ft | 274 kts | 189° |
| 2026-05-01 11:22 | 33.13202 | -7.74454 | 8861 ft | 270 kts | 184° |
| 2026-05-01 11:22 | 33.11315 | -7.74483 | 8490 ft | 270 kts | 179° |
| 2026-05-01 11:23 | 33.09437 | -7.74346 | 8149 ft | 269 kts | 175° |
| 2026-05-01 11:23 | 33.07639 | -7.73788 | 7777 ft | 269 kts | 150° |
| 2026-05-01 11:23 | 33.06326 | -7.72230 | 7469 ft | 270 kts | 119° |
| 2026-05-01 11:23 | 33.05796 | -7.70127 | 7158 ft | 270 kts | 94° |
| 2026-05-01 11:24 | 33.05987 | -7.67903 | 6834 ft | 270 kts | 75° |
| 2026-05-01 11:24 | 33.06602 | -7.65801 | 6540 ft | 269 kts | 70° |
| 2026-05-01 11:24 | 33.07977 | -7.61698 | 5899 ft | 265 kts | 69° |
| 2026-05-01 11:25 | 33.08650 | -7.59655 | 5602 ft | 262 kts | 69° |
| 2026-05-01 11:25 | 33.09921 | -7.55732 | 5186 ft | 249 kts | 69° |
| 2026-05-01 11:25 | 33.10574 | -7.53829 | 4911 ft | 241 kts | 64° |
| 2026-05-01 11:26 | 33.11508 | -7.52248 | 4704 ft | 229 kts | 39° |
| 2026-05-01 11:26 | 33.14364 | -7.51659 | 4391 ft | 203 kts | 347° |
| 2026-05-01 11:26 | 33.15697 | -7.52088 | 4257 ft | 194 kts | 346° |
| 2026-05-01 11:27 | 33.16988 | -7.52512 | 4056 ft | 188 kts | 346° |
| 2026-05-01 11:27 | 33.18219 | -7.52921 | 3980 ft | 182 kts | 346° |
| 2026-05-01 11:27 | 33.19459 | -7.53340 | 3833 ft | 185 kts | 345° |
| 2026-05-01 11:27 | 33.20673 | -7.53753 | 3545 ft | 180 kts | 345° |
| 2026-05-01 11:28 | 33.21874 | -7.54159 | 3306 ft | 179 kts | 345° |
| 2026-05-01 11:28 | 33.23069 | -7.54565 | 3057 ft | 178 kts | 345° |
| 2026-05-01 11:28 | 33.24241 | -7.54964 | 2835 ft | 165 kts | 346° |
| 2026-05-01 11:29 | 33.26384 | -7.55690 | 2391 ft | 154 kts | 346° |
| 2026-05-01 11:29 | 33.27420 | -7.56042 | 2202 ft | 158 kts | 347° |
| 2026-05-01 11:29 | 33.29478 | -7.56743 | 1792 ft | 158 kts | 347° |
| 2026-05-01 11:30 | 33.30541 | -7.57100 | 1571 ft | 154 kts | 344° |
| 2026-05-01 11:30 | 33.31564 | -7.57454 | 1377 ft | 159 kts | 347° |
| 2026-05-01 11:30 | 33.32627 | -7.57816 | 1185 ft | 156 kts | 346° |
| 2026-05-01 11:30 | 33.33634 | -7.58160 | 980 ft | 148 kts | 346° |
| 2026-05-01 11:31 | 33.34654 | -7.58491 | 795 ft | 153 kts | 347° |
| 2026-05-01 11:31 | 33.35704 | -7.58851 | 663 ft | 156 kts | 345° |
| 2026-05-01 11:31 | 33.36588 | -7.59153 | 648 ft | 101 kts | 346° |
| 2026-05-01 11:31 | 33.37085 | -7.59321 | 648 ft | 49 kts | 351° |
| 2026-05-01 11:32 | 33.37348 | -7.59281 | 648 ft | 35 kts | 13° |
| 2026-05-01 11:32 | 33.37581 | -7.59214 | 648 ft | 29 kts | 14° |
| 2026-05-01 11:32 | 33.37734 | -7.59170 | 647 ft | 22 kts | 14° |
| 2026-05-01 11:32 | 33.37828 | -7.59049 | 645 ft | 20 kts | 82° |
| 2026-05-01 11:33 | 33.37868 | -7.58886 | 644 ft | 20 kts | 73° |
| 2026-05-01 11:33 | 33.37907 | -7.58730 | 645 ft | 19 kts | 73° |
| 2026-05-01 11:33 | 33.37874 | -7.58597 | 646 ft | 16 kts | 127° |
| 2026-05-01 11:33 | 33.37790 | -7.58490 | 645 ft | 18 kts | 146° |
| 2026-05-01 11:34 | 33.37667 | -7.58446 | 646 ft | 18 kts | 166° |
| 2026-05-01 11:34 | 33.37550 | -7.58421 | 647 ft | 16 kts | 163° |
| 2026-05-01 11:34 | 33.37448 | -7.58386 | 648 ft | 14 kts | 163° |
| 2026-05-01 11:34 | 33.37359 | -7.58357 | 648 ft | 8 kts | 164° |
| 2026-05-01 11:35 | 33.37302 | -7.58338 | 648 ft | 9 kts | 164° |
| 2026-05-01 11:35 | 33.37240 | -7.58317 | 648 ft | 8 kts | 163° |
| 2026-05-01 11:35 | 33.37194 | -7.58301 | 648 ft | 4 kts | 163° |
| 2026-05-01 11:35 | 33.37183 | -7.58281 | 648 ft | 2 kts | 77° |
| 2026-05-01 11:36 | 33.37191 | -7.58247 | 648 ft | 4 kts | 75° |
| 2026-05-01 11:36 | 33.37196 | -7.58226 | 648 ft | 0 kts | 74° |
| 2026-05-01 11:36 | 33.37197 | -7.58221 | 648 ft | 0 kts | 73° |